sensor_id;sensor_type;location;lat;lon;timestamp;P1;durP1;ratioP1;P2;durP2;ratioP2
5299;SDS011;70402;42.670;23.258;2023-09-07T00:01:55;6.77;;;4.60;;
5299;SDS011;70402;42.670;23.258;2023-09-07T00:04:21;5.70;;;4.13;;
5299;SDS011;70402;42.670;23.258;2023-09-07T00:06:50;7.30;;;4.33;;
5299;SDS011;70402;42.670;23.258;2023-09-07T00:09:16;9.80;;;4.43;;
5299;SDS011;70402;42.670;23.258;2023-09-07T00:11:47;8.60;;;5.20;;
5299;SDS011;70402;42.670;23.258;2023-09-07T00:14:13;4.73;;;4.07;;
5299;SDS011;70402;42.670;23.258;2023-09-07T00:16:39;6.60;;;4.70;;
5299;SDS011;70402;42.670;23.258;2023-09-07T00:19:05;7.10;;;5.07;;
5299;SDS011;70402;42.670;23.258;2023-09-07T00:21:31;6.60;;;4.70;;
5299;SDS011;70402;42.670;23.258;2023-09-07T00:23:57;7.30;;;5.07;;
5299;SDS011;70402;42.670;23.258;2023-09-07T00:26:22;6.97;;;5.00;;
5299;SDS011;70402;42.670;23.258;2023-09-07T00:28:48;8.97;;;5.40;;
5299;SDS011;70402;42.670;23.258;2023-09-07T00:31:14;6.67;;;5.27;;
5299;SDS011;70402;42.670;23.258;2023-09-07T00:33:40;10.00;;;5.80;;
5299;SDS011;70402;42.670;23.258;2023-09-07T00:36:06;8.27;;;5.40;;
5299;SDS011;70402;42.670;23.258;2023-09-07T00:38:32;8.27;;;5.60;;
5299;SDS011;70402;42.670;23.258;2023-09-07T00:40:57;7.57;;;4.93;;
5299;SDS011;70402;42.670;23.258;2023-09-07T00:43:23;8.27;;;6.13;;
5299;SDS011;70402;42.670;23.258;2023-09-07T00:45:49;7.67;;;6.10;;
5299;SDS011;70402;42.670;23.258;2023-09-07T00:48:15;12.70;;;7.37;;
5299;SDS011;70402;42.670;23.258;2023-09-07T00:50:42;7.87;;;5.70;;
5299;SDS011;70402;42.670;23.258;2023-09-07T00:53:08;12.13;;;6.70;;
5299;SDS011;70402;42.670;23.258;2023-09-07T00:55:35;10.13;;;5.50;;
5299;SDS011;70402;42.670;23.258;2023-09-07T00:58:02;10.30;;;7.30;;
5299;SDS011;70402;42.670;23.258;2023-09-07T01:00:29;10.87;;;7.90;;
5299;SDS011;70402;42.670;23.258;2023-09-07T01:02:55;9.57;;;7.07;;
5299;SDS011;70402;42.670;23.258;2023-09-07T01:05:21;12.07;;;7.00;;
5299;SDS011;70402;42.670;23.258;2023-09-07T01:07:57;11.20;;;6.80;;
5299;SDS011;70402;42.670;23.258;2023-09-07T01:10:26;10.33;;;6.90;;
5299;SDS011;70402;42.670;23.258;2023-09-07T01:12:52;12.40;;;7.30;;
5299;SDS011;70402;42.670;23.258;2023-09-07T01:15:18;13.80;;;6.80;;
5299;SDS011;70402;42.670;23.258;2023-09-07T01:17:44;13.70;;;7.87;;
5299;SDS011;70402;42.670;23.258;2023-09-07T01:20:10;13.13;;;7.63;;
5299;SDS011;70402;42.670;23.258;2023-09-07T01:22:38;11.47;;;8.13;;
5299;SDS011;70402;42.670;23.258;2023-09-07T01:25:05;10.77;;;7.63;;
5299;SDS011;70402;42.670;23.258;2023-09-07T01:27:32;10.17;;;7.30;;
5299;SDS011;70402;42.670;23.258;2023-09-07T01:29:58;13.13;;;8.27;;
5299;SDS011;70402;42.670;23.258;2023-09-07T01:32:24;10.70;;;7.50;;
5299;SDS011;70402;42.670;23.258;2023-09-07T01:34:53;11.73;;;8.53;;
5299;SDS011;70402;42.670;23.258;2023-09-07T01:37:21;15.27;;;8.10;;
5299;SDS011;70402;42.670;23.258;2023-09-07T01:39:47;11.80;;;7.80;;
5299;SDS011;70402;42.670;23.258;2023-09-07T01:42:14;17.80;;;8.10;;
5299;SDS011;70402;42.670;23.258;2023-09-07T01:44:40;12.13;;;8.50;;
5299;SDS011;70402;42.670;23.258;2023-09-07T01:47:06;16.90;;;8.23;;
5299;SDS011;70402;42.670;23.258;2023-09-07T01:49:31;11.47;;;8.50;;
5299;SDS011;70402;42.670;23.258;2023-09-07T01:51:57;11.43;;;8.47;;
5299;SDS011;70402;42.670;23.258;2023-09-07T01:54:23;10.40;;;7.30;;
5299;SDS011;70402;42.670;23.258;2023-09-07T01:56:49;9.50;;;7.73;;
5299;SDS011;70402;42.670;23.258;2023-09-07T01:59:15;10.00;;;8.13;;
5299;SDS011;70402;42.670;23.258;2023-09-07T02:01:41;10.63;;;8.10;;
5299;SDS011;70402;42.670;23.258;2023-09-07T02:04:07;12.00;;;8.00;;
5299;SDS011;70402;42.670;23.258;2023-09-07T02:06:33;11.30;;;8.43;;
5299;SDS011;70402;42.670;23.258;2023-09-07T02:08:59;11.77;;;8.57;;
5299;SDS011;70402;42.670;23.258;2023-09-07T02:11:24;15.03;;;8.67;;
5299;SDS011;70402;42.670;23.258;2023-09-07T02:13:50;9.50;;;7.43;;
5299;SDS011;70402;42.670;23.258;2023-09-07T02:16:16;13.20;;;7.70;;
5299;SDS011;70402;42.670;23.258;2023-09-07T02:18:44;11.70;;;8.27;;
5299;SDS011;70402;42.670;23.258;2023-09-07T02:21:11;11.33;;;7.73;;
5299;SDS011;70402;42.670;23.258;2023-09-07T02:23:37;9.50;;;6.90;;
5299;SDS011;70402;42.670;23.258;2023-09-07T02:26:03;11.13;;;7.77;;
5299;SDS011;70402;42.670;23.258;2023-09-07T02:28:29;11.87;;;7.80;;
5299;SDS011;70402;42.670;23.258;2023-09-07T02:31:01;9.73;;;8.10;;
5299;SDS011;70402;42.670;23.258;2023-09-07T02:33:28;11.17;;;7.80;;
5299;SDS011;70402;42.670;23.258;2023-09-07T02:35:54;8.70;;;6.93;;
5299;SDS011;70402;42.670;23.258;2023-09-07T02:38:19;13.60;;;8.37;;
5299;SDS011;70402;42.670;23.258;2023-09-07T02:40:45;13.10;;;8.40;;
5299;SDS011;70402;42.670;23.258;2023-09-07T02:43:12;10.43;;;7.03;;
5299;SDS011;70402;42.670;23.258;2023-09-07T02:45:38;13.20;;;8.40;;
5299;SDS011;70402;42.670;23.258;2023-09-07T02:48:04;10.60;;;7.90;;
5299;SDS011;70402;42.670;23.258;2023-09-07T02:50:48;12.10;;;8.20;;
5299;SDS011;70402;42.670;23.258;2023-09-07T02:53:27;12.33;;;8.83;;
5299;SDS011;70402;42.670;23.258;2023-09-07T02:55:52;14.10;;;8.50;;
5299;SDS011;70402;42.670;23.258;2023-09-07T02:58:18;23.27;;;8.80;;
5299;SDS011;70402;42.670;23.258;2023-09-07T03:00:44;11.67;;;7.90;;
5299;SDS011;70402;42.670;23.258;2023-09-07T03:03:15;12.20;;;7.80;;
5299;SDS011;70402;42.670;23.258;2023-09-07T03:05:41;14.90;;;9.30;;
5299;SDS011;70402;42.670;23.258;2023-09-07T03:08:08;12.40;;;8.60;;
5299;SDS011;70402;42.670;23.258;2023-09-07T03:10:37;12.50;;;8.20;;
5299;SDS011;70402;42.670;23.258;2023-09-07T03:13:05;13.20;;;9.20;;
5299;SDS011;70402;42.670;23.258;2023-09-07T03:15:31;14.37;;;8.37;;
5299;SDS011;70402;42.670;23.258;2023-09-07T03:17:58;13.73;;;9.57;;
5299;SDS011;70402;42.670;23.258;2023-09-07T03:20:23;12.13;;;8.47;;
5299;SDS011;70402;42.670;23.258;2023-09-07T03:22:49;13.27;;;8.70;;
5299;SDS011;70402;42.670;23.258;2023-09-07T03:25:15;12.53;;;8.70;;
5299;SDS011;70402;42.670;23.258;2023-09-07T03:27:41;13.87;;;9.30;;
5299;SDS011;70402;42.670;23.258;2023-09-07T03:30:07;14.10;;;8.57;;
5299;SDS011;70402;42.670;23.258;2023-09-07T03:32:33;13.70;;;9.23;;
5299;SDS011;70402;42.670;23.258;2023-09-07T03:34:59;12.07;;;9.00;;
5299;SDS011;70402;42.670;23.258;2023-09-07T03:37:29;13.77;;;9.37;;
5299;SDS011;70402;42.670;23.258;2023-09-07T03:39:55;14.17;;;9.87;;
5299;SDS011;70402;42.670;23.258;2023-09-07T03:42:22;14.33;;;9.43;;
5299;SDS011;70402;42.670;23.258;2023-09-07T03:44:48;12.07;;;8.50;;
5299;SDS011;70402;42.670;23.258;2023-09-07T03:47:14;14.83;;;9.73;;
5299;SDS011;70402;42.670;23.258;2023-09-07T03:49:40;15.77;;;10.03;;
5299;SDS011;70402;42.670;23.258;2023-09-07T03:52:07;15.03;;;9.77;;
5299;SDS011;70402;42.670;23.258;2023-09-07T03:54:33;13.97;;;8.60;;
5299;SDS011;70402;42.670;23.258;2023-09-07T03:56:58;14.63;;;9.93;;
5299;SDS011;70402;42.670;23.258;2023-09-07T03:59:24;12.40;;;8.80;;
5299;SDS011;70402;42.670;23.258;2023-09-07T04:01:53;15.70;;;9.83;;
5299;SDS011;70402;42.670;23.258;2023-09-07T04:04:20;12.67;;;9.00;;
5299;SDS011;70402;42.670;23.258;2023-09-07T04:06:46;14.93;;;9.10;;
5299;SDS011;70402;42.670;23.258;2023-09-07T04:09:13;11.57;;;9.63;;
5299;SDS011;70402;42.670;23.258;2023-09-07T04:11:39;14.63;;;9.37;;
5299;SDS011;70402;42.670;23.258;2023-09-07T04:14:05;12.70;;;8.83;;
5299;SDS011;70402;42.670;23.258;2023-09-07T04:16:31;15.10;;;10.57;;
5299;SDS011;70402;42.670;23.258;2023-09-07T04:18:57;15.27;;;10.20;;
5299;SDS011;70402;42.670;23.258;2023-09-07T04:21:23;13.63;;;9.20;;
5299;SDS011;70402;42.670;23.258;2023-09-07T04:23:49;12.37;;;9.70;;
5299;SDS011;70402;42.670;23.258;2023-09-07T04:26:14;12.20;;;9.00;;
5299;SDS011;70402;42.670;23.258;2023-09-07T04:28:40;12.00;;;8.27;;
5299;SDS011;70402;42.670;23.258;2023-09-07T04:31:06;12.53;;;9.40;;
5299;SDS011;70402;42.670;23.258;2023-09-07T04:33:33;16.33;;;10.47;;
5299;SDS011;70402;42.670;23.258;2023-09-07T04:36:11;14.70;;;9.67;;
5299;SDS011;70402;42.670;23.258;2023-09-07T04:38:38;21.63;;;10.57;;
5299;SDS011;70402;42.670;23.258;2023-09-07T04:41:08;14.17;;;9.83;;
5299;SDS011;70402;42.670;23.258;2023-09-07T04:43:38;15.40;;;10.77;;
5299;SDS011;70402;42.670;23.258;2023-09-07T04:46:05;14.10;;;9.70;;
5299;SDS011;70402;42.670;23.258;2023-09-07T04:48:32;14.13;;;10.53;;
5299;SDS011;70402;42.670;23.258;2023-09-07T04:50:59;14.50;;;9.40;;
5299;SDS011;70402;42.670;23.258;2023-09-07T04:53:30;16.83;;;10.60;;
5299;SDS011;70402;42.670;23.258;2023-09-07T04:55:58;13.60;;;9.20;;
5299;SDS011;70402;42.670;23.258;2023-09-07T04:58:24;17.63;;;9.90;;
5299;SDS011;70402;42.670;23.258;2023-09-07T05:00:50;15.53;;;10.33;;
5299;SDS011;70402;42.670;23.258;2023-09-07T05:03:16;22.90;;;10.37;;
5299;SDS011;70402;42.670;23.258;2023-09-07T05:05:42;15.87;;;9.63;;
5299;SDS011;70402;42.670;23.258;2023-09-07T05:08:17;13.67;;;9.57;;
5299;SDS011;70402;42.670;23.258;2023-09-07T05:10:44;16.60;;;10.60;;
5299;SDS011;70402;42.670;23.258;2023-09-07T05:13:09;13.77;;;10.00;;
5299;SDS011;70402;42.670;23.258;2023-09-07T05:15:35;13.80;;;9.40;;
5299;SDS011;70402;42.670;23.258;2023-09-07T05:18:01;15.97;;;10.00;;
5299;SDS011;70402;42.670;23.258;2023-09-07T05:20:29;14.70;;;8.30;;
5299;SDS011;70402;42.670;23.258;2023-09-07T05:22:56;15.80;;;8.50;;
5299;SDS011;70402;42.670;23.258;2023-09-07T05:25:24;14.07;;;9.50;;
5299;SDS011;70402;42.670;23.258;2023-09-07T05:27:50;16.07;;;9.47;;
5299;SDS011;70402;42.670;23.258;2023-09-07T05:30:16;16.70;;;9.53;;
5299;SDS011;70402;42.670;23.258;2023-09-07T05:32:42;15.97;;;10.63;;
5299;SDS011;70402;42.670;23.258;2023-09-07T05:35:08;16.23;;;10.37;;
5299;SDS011;70402;42.670;23.258;2023-09-07T05:37:36;14.07;;;8.90;;
5299;SDS011;70402;42.670;23.258;2023-09-07T05:40:01;14.60;;;9.77;;
5299;SDS011;70402;42.670;23.258;2023-09-07T05:42:28;20.60;;;10.00;;
5299;SDS011;70402;42.670;23.258;2023-09-07T05:44:54;14.83;;;9.97;;
5299;SDS011;70402;42.670;23.258;2023-09-07T05:47:20;21.83;;;10.50;;
5299;SDS011;70402;42.670;23.258;2023-09-07T05:49:46;16.20;;;10.40;;
5299;SDS011;70402;42.670;23.258;2023-09-07T05:52:12;15.57;;;10.30;;
5299;SDS011;70402;42.670;23.258;2023-09-07T05:54:38;13.43;;;9.90;;
5299;SDS011;70402;42.670;23.258;2023-09-07T05:57:04;15.20;;;9.27;;
5299;SDS011;70402;42.670;23.258;2023-09-07T05:59:30;16.03;;;9.50;;
5299;SDS011;70402;42.670;23.258;2023-09-07T06:01:56;12.30;;;8.37;;
5299;SDS011;70402;42.670;23.258;2023-09-07T06:04:22;11.93;;;8.10;;
5299;SDS011;70402;42.670;23.258;2023-09-07T06:06:47;11.37;;;8.13;;
5299;SDS011;70402;42.670;23.258;2023-09-07T06:09:13;13.47;;;8.67;;
5299;SDS011;70402;42.670;23.258;2023-09-07T06:11:39;13.20;;;8.70;;
5299;SDS011;70402;42.670;23.258;2023-09-07T06:14:05;17.47;;;9.33;;
5299;SDS011;70402;42.670;23.258;2023-09-07T06:16:31;11.47;;;8.07;;
5299;SDS011;70402;42.670;23.258;2023-09-07T06:18:57;12.77;;;9.37;;
5299;SDS011;70402;42.670;23.258;2023-09-07T06:21:23;11.57;;;8.37;;
5299;SDS011;70402;42.670;23.258;2023-09-07T06:23:49;10.53;;;7.23;;
5299;SDS011;70402;42.670;23.258;2023-09-07T06:26:15;12.30;;;7.40;;
5299;SDS011;70402;42.670;23.258;2023-09-07T06:28:43;9.43;;;6.70;;
5299;SDS011;70402;42.670;23.258;2023-09-07T06:31:09;11.60;;;7.00;;
5299;SDS011;70402;42.670;23.258;2023-09-07T06:33:34;10.30;;;6.47;;
5299;SDS011;70402;42.670;23.258;2023-09-07T06:36:00;7.97;;;5.90;;
5299;SDS011;70402;42.670;23.258;2023-09-07T06:38:27;11.87;;;6.50;;
5299;SDS011;70402;42.670;23.258;2023-09-07T06:40:53;7.80;;;6.00;;
5299;SDS011;70402;42.670;23.258;2023-09-07T06:43:19;9.37;;;6.20;;
5299;SDS011;70402;42.670;23.258;2023-09-07T06:45:45;9.33;;;5.60;;
5299;SDS011;70402;42.670;23.258;2023-09-07T06:48:11;10.00;;;6.50;;
5299;SDS011;70402;42.670;23.258;2023-09-07T06:50:37;8.87;;;6.20;;
5299;SDS011;70402;42.670;23.258;2023-09-07T06:53:03;7.93;;;5.43;;
5299;SDS011;70402;42.670;23.258;2023-09-07T06:55:29;13.93;;;4.83;;
5299;SDS011;70402;42.670;23.258;2023-09-07T06:57:55;7.40;;;5.30;;
5299;SDS011;70402;42.670;23.258;2023-09-07T07:00:22;7.97;;;5.17;;
5299;SDS011;70402;42.670;23.258;2023-09-07T07:02:48;7.77;;;4.53;;
5299;SDS011;70402;42.670;23.258;2023-09-07T07:05:14;10.40;;;4.67;;
5299;SDS011;70402;42.670;23.258;2023-09-07T07:07:40;8.83;;;5.50;;
5299;SDS011;70402;42.670;23.258;2023-09-07T07:10:06;6.97;;;5.17;;
5299;SDS011;70402;42.670;23.258;2023-09-07T07:12:32;9.53;;;5.30;;
5299;SDS011;70402;42.670;23.258;2023-09-07T07:15:00;8.00;;;5.40;;
5299;SDS011;70402;42.670;23.258;2023-09-07T07:17:27;9.67;;;4.77;;
5299;SDS011;70402;42.670;23.258;2023-09-07T07:19:53;8.17;;;5.23;;
5299;SDS011;70402;42.670;23.258;2023-09-07T07:22:19;7.43;;;5.17;;
5299;SDS011;70402;42.670;23.258;2023-09-07T07:24:45;5.53;;;4.50;;
5299;SDS011;70402;42.670;23.258;2023-09-07T07:27:11;11.00;;;4.90;;
5299;SDS011;70402;42.670;23.258;2023-09-07T07:29:37;7.33;;;4.90;;
5299;SDS011;70402;42.670;23.258;2023-09-07T07:32:03;8.80;;;4.77;;
5299;SDS011;70402;42.670;23.258;2023-09-07T07:34:29;6.07;;;4.73;;
5299;SDS011;70402;42.670;23.258;2023-09-07T07:36:55;10.00;;;5.10;;
5299;SDS011;70402;42.670;23.258;2023-09-07T07:39:21;7.60;;;4.40;;
5299;SDS011;70402;42.670;23.258;2023-09-07T07:41:47;5.90;;;4.37;;
5299;SDS011;70402;42.670;23.258;2023-09-07T07:44:13;7.97;;;5.20;;
5299;SDS011;70402;42.670;23.258;2023-09-07T07:46:39;7.87;;;5.10;;
5299;SDS011;70402;42.670;23.258;2023-09-07T07:49:05;14.37;;;5.40;;
5299;SDS011;70402;42.670;23.258;2023-09-07T07:51:30;5.37;;;4.47;;
5299;SDS011;70402;42.670;23.258;2023-09-07T07:53:56;7.57;;;5.73;;
5299;SDS011;70402;42.670;23.258;2023-09-07T07:56:23;6.13;;;4.90;;
5299;SDS011;70402;42.670;23.258;2023-09-07T07:58:49;6.50;;;4.43;;
5299;SDS011;70402;42.670;23.258;2023-09-07T08:01:15;6.50;;;4.97;;
5299;SDS011;70402;42.670;23.258;2023-09-07T08:03:42;8.63;;;5.23;;
5299;SDS011;70402;42.670;23.258;2023-09-07T08:06:09;7.40;;;5.50;;
5299;SDS011;70402;42.670;23.258;2023-09-07T08:08:36;7.13;;;5.03;;
5299;SDS011;70402;42.670;23.258;2023-09-07T08:11:02;7.70;;;4.63;;
5299;SDS011;70402;42.670;23.258;2023-09-07T08:13:34;7.20;;;5.03;;
5299;SDS011;70402;42.670;23.258;2023-09-07T08:16:00;8.77;;;4.90;;
5299;SDS011;70402;42.670;23.258;2023-09-07T08:18:27;6.93;;;5.00;;
5299;SDS011;70402;42.670;23.258;2023-09-07T08:20:53;7.43;;;5.27;;
5299;SDS011;70402;42.670;23.258;2023-09-07T08:23:20;7.50;;;5.30;;
5299;SDS011;70402;42.670;23.258;2023-09-07T08:25:48;8.27;;;4.90;;
5299;SDS011;70402;42.670;23.258;2023-09-07T08:28:16;7.40;;;4.90;;
5299;SDS011;70402;42.670;23.258;2023-09-07T08:30:43;9.50;;;4.43;;
5299;SDS011;70402;42.670;23.258;2023-09-07T08:33:09;6.40;;;4.80;;
5299;SDS011;70402;42.670;23.258;2023-09-07T08:35:36;7.60;;;5.03;;
5299;SDS011;70402;42.670;23.258;2023-09-07T08:38:09;6.70;;;4.63;;
5299;SDS011;70402;42.670;23.258;2023-09-07T08:40:35;7.47;;;4.67;;
5299;SDS011;70402;42.670;23.258;2023-09-07T08:43:05;7.83;;;4.17;;
5299;SDS011;70402;42.670;23.258;2023-09-07T08:45:37;5.63;;;4.43;;
5299;SDS011;70402;42.670;23.258;2023-09-07T08:48:13;8.47;;;5.40;;
5299;SDS011;70402;42.670;23.258;2023-09-07T08:50:40;7.53;;;5.20;;
5299;SDS011;70402;42.670;23.258;2023-09-07T08:53:07;5.73;;;4.47;;
5299;SDS011;70402;42.670;23.258;2023-09-07T08:55:34;5.20;;;3.90;;
5299;SDS011;70402;42.670;23.258;2023-09-07T08:58:00;5.80;;;4.60;;
5299;SDS011;70402;42.670;23.258;2023-09-07T09:00:25;7.67;;;4.90;;
5299;SDS011;70402;42.670;23.258;2023-09-07T09:02:51;7.17;;;4.80;;
5299;SDS011;70402;42.670;23.258;2023-09-07T09:05:19;8.33;;;4.90;;
5299;SDS011;70402;42.670;23.258;2023-09-07T09:07:45;5.90;;;4.50;;
5299;SDS011;70402;42.670;23.258;2023-09-07T09:10:11;7.37;;;4.53;;
5299;SDS011;70402;42.670;23.258;2023-09-07T09:12:44;5.20;;;4.20;;
5299;SDS011;70402;42.670;23.258;2023-09-07T09:15:11;6.63;;;4.23;;
5299;SDS011;70402;42.670;23.258;2023-09-07T09:17:37;5.80;;;4.27;;
5299;SDS011;70402;42.670;23.258;2023-09-07T09:20:03;7.27;;;4.40;;
5299;SDS011;70402;42.670;23.258;2023-09-07T09:22:35;4.83;;;3.70;;
5299;SDS011;70402;42.670;23.258;2023-09-07T09:25:04;5.47;;;3.50;;
5299;SDS011;70402;42.670;23.258;2023-09-07T09:27:30;5.90;;;4.20;;
5299;SDS011;70402;42.670;23.258;2023-09-07T09:29:56;6.03;;;3.23;;
5299;SDS011;70402;42.670;23.258;2023-09-07T09:32:23;6.40;;;4.10;;
5299;SDS011;70402;42.670;23.258;2023-09-07T09:34:49;6.20;;;3.90;;
5299;SDS011;70402;42.670;23.258;2023-09-07T09:37:16;6.60;;;3.13;;
5299;SDS011;70402;42.670;23.258;2023-09-07T09:39:45;5.80;;;4.10;;
5299;SDS011;70402;42.670;23.258;2023-09-07T09:42:15;4.57;;;3.60;;
5299;SDS011;70402;42.670;23.258;2023-09-07T09:44:41;5.30;;;3.37;;
5299;SDS011;70402;42.670;23.258;2023-09-07T09:47:08;7.13;;;3.67;;
5299;SDS011;70402;42.670;23.258;2023-09-07T09:49:34;4.93;;;3.83;;
5299;SDS011;70402;42.670;23.258;2023-09-07T09:52:00;6.07;;;3.73;;
5299;SDS011;70402;42.670;23.258;2023-09-07T09:54:27;5.67;;;4.30;;
5299;SDS011;70402;42.670;23.258;2023-09-07T09:56:54;4.00;;;3.10;;
5299;SDS011;70402;42.670;23.258;2023-09-07T09:59:20;4.40;;;3.73;;
5299;SDS011;70402;42.670;23.258;2023-09-07T10:01:47;3.70;;;3.20;;
5299;SDS011;70402;42.670;23.258;2023-09-07T10:04:16;5.83;;;3.63;;
5299;SDS011;70402;42.670;23.258;2023-09-07T10:06:55;5.87;;;3.57;;
5299;SDS011;70402;42.670;23.258;2023-09-07T10:09:33;6.97;;;3.70;;
5299;SDS011;70402;42.670;23.258;2023-09-07T10:12:00;12.37;;;3.80;;
5299;SDS011;70402;42.670;23.258;2023-09-07T10:14:37;5.20;;;3.97;;
5299;SDS011;70402;42.670;23.258;2023-09-07T10:17:04;8.03;;;3.90;;
5299;SDS011;70402;42.670;23.258;2023-09-07T10:19:31;4.60;;;3.20;;
5299;SDS011;70402;42.670;23.258;2023-09-07T10:21:57;4.70;;;3.00;;
5299;SDS011;70402;42.670;23.258;2023-09-07T10:24:23;6.37;;;3.03;;
5299;SDS011;70402;42.670;23.258;2023-09-07T10:26:57;4.30;;;3.03;;
5299;SDS011;70402;42.670;23.258;2023-09-07T10:29:27;5.07;;;3.50;;
5299;SDS011;70402;42.670;23.258;2023-09-07T10:31:54;4.60;;;3.40;;
5299;SDS011;70402;42.670;23.258;2023-09-07T10:34:20;4.97;;;3.10;;
5299;SDS011;70402;42.670;23.258;2023-09-07T10:36:47;9.30;;;3.20;;
5299;SDS011;70402;42.670;23.258;2023-09-07T10:39:16;5.03;;;3.53;;
5299;SDS011;70402;42.670;23.258;2023-09-07T10:41:42;5.40;;;3.47;;
5299;SDS011;70402;42.670;23.258;2023-09-07T10:44:09;7.17;;;3.13;;
5299;SDS011;70402;42.670;23.258;2023-09-07T10:46:39;4.87;;;3.97;;
5299;SDS011;70402;42.670;23.258;2023-09-07T10:49:08;6.80;;;3.90;;
5299;SDS011;70402;42.670;23.258;2023-09-07T10:51:40;5.87;;;3.87;;
5299;SDS011;70402;42.670;23.258;2023-09-07T10:54:14;5.23;;;3.77;;
5299;SDS011;70402;42.670;23.258;2023-09-07T10:56:43;5.00;;;3.47;;
5299;SDS011;70402;42.670;23.258;2023-09-07T10:59:09;5.73;;;4.00;;
5299;SDS011;70402;42.670;23.258;2023-09-07T11:01:35;6.33;;;4.00;;
5299;SDS011;70402;42.670;23.258;2023-09-07T11:04:01;4.77;;;3.47;;
5299;SDS011;70402;42.670;23.258;2023-09-07T11:06:28;4.40;;;4.00;;
5299;SDS011;70402;42.670;23.258;2023-09-07T11:08:54;7.33;;;3.77;;
5299;SDS011;70402;42.670;23.258;2023-09-07T11:11:20;5.27;;;3.57;;
5299;SDS011;70402;42.670;23.258;2023-09-07T11:13:48;6.20;;;3.97;;
5299;SDS011;70402;42.670;23.258;2023-09-07T11:16:13;6.00;;;4.13;;
5299;SDS011;70402;42.670;23.258;2023-09-07T11:18:39;6.17;;;4.07;;
5299;SDS011;70402;42.670;23.258;2023-09-07T11:21:06;4.67;;;3.87;;
5299;SDS011;70402;42.670;23.258;2023-09-07T11:23:34;5.37;;;4.13;;
5299;SDS011;70402;42.670;23.258;2023-09-07T11:26:07;4.13;;;3.40;;
5299;SDS011;70402;42.670;23.258;2023-09-07T11:28:34;4.53;;;3.50;;
5299;SDS011;70402;42.670;23.258;2023-09-07T11:31:00;3.97;;;3.10;;
5299;SDS011;70402;42.670;23.258;2023-09-07T11:33:26;5.57;;;3.47;;
5299;SDS011;70402;42.670;23.258;2023-09-07T11:35:52;7.00;;;3.70;;
5299;SDS011;70402;42.670;23.258;2023-09-07T11:38:21;8.10;;;3.43;;
5299;SDS011;70402;42.670;23.258;2023-09-07T11:40:47;3.70;;;3.03;;
5299;SDS011;70402;42.670;23.258;2023-09-07T11:43:14;4.40;;;3.13;;
5299;SDS011;70402;42.670;23.258;2023-09-07T11:45:41;4.47;;;3.03;;
5299;SDS011;70402;42.670;23.258;2023-09-07T11:48:09;6.33;;;2.90;;
5299;SDS011;70402;42.670;23.258;2023-09-07T11:50:36;5.47;;;3.20;;
5299;SDS011;70402;42.670;23.258;2023-09-07T11:53:02;3.93;;;3.07;;
5299;SDS011;70402;42.670;23.258;2023-09-07T11:55:29;6.43;;;3.00;;
5299;SDS011;70402;42.670;23.258;2023-09-07T11:57:55;4.30;;;3.20;;
5299;SDS011;70402;42.670;23.258;2023-09-07T12:00:21;3.30;;;2.70;;
5299;SDS011;70402;42.670;23.258;2023-09-07T12:02:47;4.73;;;3.20;;
5299;SDS011;70402;42.670;23.258;2023-09-07T12:05:13;3.93;;;3.00;;
5299;SDS011;70402;42.670;23.258;2023-09-07T12:07:40;4.87;;;3.53;;
5299;SDS011;70402;42.670;23.258;2023-09-07T12:10:09;4.67;;;3.47;;
5299;SDS011;70402;42.670;23.258;2023-09-07T12:12:36;4.20;;;3.30;;
5299;SDS011;70402;42.670;23.258;2023-09-07T12:15:02;5.43;;;2.97;;
5299;SDS011;70402;42.670;23.258;2023-09-07T12:17:29;4.30;;;2.73;;
5299;SDS011;70402;42.670;23.258;2023-09-07T12:19:56;6.53;;;3.63;;
5299;SDS011;70402;42.670;23.258;2023-09-07T12:22:22;4.53;;;3.53;;
5299;SDS011;70402;42.670;23.258;2023-09-07T12:24:48;2.90;;;2.40;;
5299;SDS011;70402;42.670;23.258;2023-09-07T12:27:14;4.70;;;3.23;;
5299;SDS011;70402;42.670;23.258;2023-09-07T12:29:40;12.43;;;3.47;;
5299;SDS011;70402;42.670;23.258;2023-09-07T12:32:07;6.00;;;3.20;;
5299;SDS011;70402;42.670;23.258;2023-09-07T12:34:32;10.23;;;3.07;;
5299;SDS011;70402;42.670;23.258;2023-09-07T12:36:58;5.20;;;3.27;;
5299;SDS011;70402;42.670;23.258;2023-09-07T12:39:24;4.40;;;3.20;;
5299;SDS011;70402;42.670;23.258;2023-09-07T12:41:50;4.60;;;3.13;;
5299;SDS011;70402;42.670;23.258;2023-09-07T12:44:16;4.50;;;3.03;;
5299;SDS011;70402;42.670;23.258;2023-09-07T12:46:43;6.80;;;2.73;;
5299;SDS011;70402;42.670;23.258;2023-09-07T12:49:09;4.07;;;3.10;;
5299;SDS011;70402;42.670;23.258;2023-09-07T12:51:35;4.60;;;3.03;;
5299;SDS011;70402;42.670;23.258;2023-09-07T12:54:01;3.40;;;2.70;;
5299;SDS011;70402;42.670;23.258;2023-09-07T12:56:28;5.23;;;3.47;;
5299;SDS011;70402;42.670;23.258;2023-09-07T12:58:54;4.30;;;2.90;;
5299;SDS011;70402;42.670;23.258;2023-09-07T13:01:22;7.73;;;3.13;;
5299;SDS011;70402;42.670;23.258;2023-09-07T13:03:48;3.67;;;3.17;;
5299;SDS011;70402;42.670;23.258;2023-09-07T13:06:14;4.83;;;2.90;;
5299;SDS011;70402;42.670;23.258;2023-09-07T13:08:42;6.23;;;3.37;;
5299;SDS011;70402;42.670;23.258;2023-09-07T13:11:08;8.63;;;3.20;;
5299;SDS011;70402;42.670;23.258;2023-09-07T13:13:34;4.37;;;3.00;;
5299;SDS011;70402;42.670;23.258;2023-09-07T13:16:00;3.60;;;2.97;;
5299;SDS011;70402;42.670;23.258;2023-09-07T13:18:26;6.97;;;3.00;;
5299;SDS011;70402;42.670;23.258;2023-09-07T13:20:52;3.13;;;2.60;;
5299;SDS011;70402;42.670;23.258;2023-09-07T13:23:24;4.53;;;2.80;;
5299;SDS011;70402;42.670;23.258;2023-09-07T13:25:51;5.13;;;3.00;;
5299;SDS011;70402;42.670;23.258;2023-09-07T13:28:17;4.13;;;3.20;;
5299;SDS011;70402;42.670;23.258;2023-09-07T13:30:43;5.97;;;3.67;;
5299;SDS011;70402;42.670;23.258;2023-09-07T13:33:09;6.40;;;3.30;;
5299;SDS011;70402;42.670;23.258;2023-09-07T13:35:35;4.27;;;3.00;;
5299;SDS011;70402;42.670;23.258;2023-09-07T13:38:01;8.07;;;3.60;;
5299;SDS011;70402;42.670;23.258;2023-09-07T13:40:27;5.17;;;3.03;;
5299;SDS011;70402;42.670;23.258;2023-09-07T13:42:55;11.73;;;3.27;;
5299;SDS011;70402;42.670;23.258;2023-09-07T13:45:21;4.90;;;3.20;;
5299;SDS011;70402;42.670;23.258;2023-09-07T13:47:47;4.33;;;2.77;;
5299;SDS011;70402;42.670;23.258;2023-09-07T13:50:14;3.63;;;2.90;;
5299;SDS011;70402;42.670;23.258;2023-09-07T13:52:40;4.20;;;3.00;;
5299;SDS011;70402;42.670;23.258;2023-09-07T13:55:06;5.63;;;2.70;;
5299;SDS011;70402;42.670;23.258;2023-09-07T13:57:32;3.50;;;2.90;;
5299;SDS011;70402;42.670;23.258;2023-09-07T13:59:58;4.13;;;2.97;;
5299;SDS011;70402;42.670;23.258;2023-09-07T14:02:24;4.57;;;3.03;;
5299;SDS011;70402;42.670;23.258;2023-09-07T14:04:51;3.63;;;3.00;;
5299;SDS011;70402;42.670;23.258;2023-09-07T14:07:17;3.20;;;2.60;;
5299;SDS011;70402;42.670;23.258;2023-09-07T14:09:43;5.57;;;3.43;;
5299;SDS011;70402;42.670;23.258;2023-09-07T14:12:09;4.73;;;3.17;;
5299;SDS011;70402;42.670;23.258;2023-09-07T14:14:35;7.40;;;3.50;;
5299;SDS011;70402;42.670;23.258;2023-09-07T14:17:01;3.87;;;2.70;;
5299;SDS011;70402;42.670;23.258;2023-09-07T14:19:27;5.33;;;3.20;;
5299;SDS011;70402;42.670;23.258;2023-09-07T14:21:56;6.03;;;3.80;;
5299;SDS011;70402;42.670;23.258;2023-09-07T14:24:23;4.93;;;3.57;;
5299;SDS011;70402;42.670;23.258;2023-09-07T14:26:49;4.23;;;3.20;;
5299;SDS011;70402;42.670;23.258;2023-09-07T14:29:15;4.50;;;3.13;;
5299;SDS011;70402;42.670;23.258;2023-09-07T14:31:41;5.00;;;3.10;;
5299;SDS011;70402;42.670;23.258;2023-09-07T14:34:09;9.20;;;3.03;;
5299;SDS011;70402;42.670;23.258;2023-09-07T14:36:38;3.73;;;2.80;;
5299;SDS011;70402;42.670;23.258;2023-09-07T14:39:05;4.87;;;3.67;;